createdAt,value
2023-03-01T00:11:08.867Z,102253.59
2023-03-01T00:27:16.782Z,102275.78
2023-03-01T00:46:44.059Z,102398.50
2023-03-01T01:02:36.184Z,102256.75
2023-03-01T01:06:23.512Z,102587.47
2023-03-01T02:38:43.371Z,102553.56
2023-03-01T02:43:25.179Z,102344.22
2023-03-01T02:47:15.165Z,102190.28
2023-03-01T03:04:04.179Z,102357.91
2023-03-01T03:09:04.122Z,102532.19
2023-03-01T03:11:06.701Z,102166.66
2023-03-01T03:14:14.213Z,102516.28
2023-03-01T03:17:50.580Z,102339.19
2023-03-01T03:21:06.850Z,102528.47
2023-03-01T03:27:23.537Z,102558.06
2023-03-01T03:34:34.560Z,102308.25
2023-03-01T03:37:36.838Z,102533.03
2023-03-01T03:40:31.507Z,102433.94
2023-03-01T03:43:21.698Z,102487.72
2023-03-01T03:46:07.514Z,102460.19
2023-03-01T03:53:02.794Z,102500.63
2023-03-01T03:56:34.303Z,102419.88
2023-03-01T04:07:37.332Z,102412.41
2023-03-01T04:10:38.017Z,102349.06
2023-03-01T04:14:31.220Z,102486.50
2023-03-01T04:17:23.916Z,102496.84
2023-03-01T04:20:43.796Z,102515.97
2023-03-01T04:23:56.198Z,102134.00
2023-03-01T04:26:41.999Z,102316.41
2023-03-01T04:29:34.972Z,102488.53
2023-03-01T04:32:48.488Z,102215.44
2023-03-01T04:36:06.585Z,102317.56
2023-03-01T04:38:45.011Z,102514.69
2023-03-01T04:42:09.712Z,102429.28
2023-03-01T04:45:22.960Z,102252.16
2023-03-01T05:01:39.303Z,102307.75
2023-03-01T05:04:29.886Z,102301.16
2023-03-01T05:07:10.561Z,102498.84
2023-03-01T05:09:48.088Z,102508.81
2023-03-01T05:12:21.203Z,102508.91
2023-03-01T05:14:52.847Z,102492.50
2023-03-01T05:17:33.743Z,102273.63
2023-03-01T05:20:10.076Z,102474.38
2023-03-01T05:22:48.164Z,102519.69
2023-03-01T05:25:22.668Z,102500.16
2023-03-01T05:28:04.541Z,102311.88
2023-03-01T05:30:35.740Z,102494.56
2023-03-01T05:33:17.603Z,102297.75
2023-03-01T05:35:50.235Z,102344.81
2023-03-01T05:38:28.411Z,102333.28
2023-03-01T05:44:23.068Z,102395.13
2023-03-01T06:04:13.465Z,102179.63
2023-03-01T06:06:46.048Z,102277.03
2023-03-01T06:09:15.962Z,102407.09
2023-03-01T06:12:02.490Z,102265.34
2023-03-01T06:14:51.568Z,102223.31
2023-03-01T06:17:21.799Z,102284.34
2023-03-01T06:19:51.855Z,102269.84
2023-03-01T06:22:24.436Z,102298.47
2023-03-01T06:24:54.444Z,102493.88
2023-03-01T06:27:25.369Z,102409.72
2023-03-01T06:29:55.128Z,102436.09
2023-03-01T06:39:34.148Z,102524.38
2023-03-01T06:41:39.390Z,102322.28
2023-03-01T07:06:13.601Z,102480.94
2023-03-01T07:08:43.287Z,102480.22
2023-03-01T07:11:19.550Z,102318.78
2023-03-01T07:13:49.367Z,102359.56
2023-03-01T07:16:23.889Z,102378.81
2023-03-01T07:47:52.208Z,102483.44
2023-03-01T07:50:42.284Z,102451.94
2023-03-01T07:53:14.831Z,102385.13
2023-03-01T07:55:44.802Z,102458.13
2023-03-01T07:58:14.605Z,102392.34
2023-03-01T08:00:44.232Z,102421.03
2023-03-01T08:05:44.874Z,102449.81
2023-03-01T08:08:14.484Z,102447.41
2023-03-01T08:10:44.630Z,102383.19
2023-03-01T10:08:09.873Z,102399.78
2023-03-01T10:10:42.348Z,102331.25
2023-03-01T10:13:20.897Z,102379.59
2023-03-01T10:15:58.945Z,102384.72
2023-03-01T10:18:31.310Z,102381.94
2023-03-01T10:21:02.837Z,102402.25
2023-03-01T10:23:35.564Z,102389.28
2023-03-01T10:26:16.027Z,102369.47
2023-03-01T10:29:03.402Z,102378.50
2023-03-01T10:31:43.987Z,102400.00
2023-03-01T10:34:19.750Z,102347.78
2023-03-01T10:36:52.698Z,102404.09
2023-03-01T10:39:24.672Z,102376.69
2023-03-01T10:42:02.883Z,102361.00
2023-03-01T10:44:48.093Z,102343.56
2023-03-01T10:47:24.435Z,102356.75
2023-03-01T10:49:59.881Z,102395.88
2023-03-01T10:52:33.168Z,102389.34
2023-03-01T10:55:07.522Z,102381.41
2023-03-01T10:57:42.807Z,102389.44
2023-03-01T11:00:26.114Z,102350.00
2023-03-01T11:03:18.204Z,102377.09
2023-03-01T11:05:56.944Z,102347.28
2023-03-01T11:08:44.052Z,102384.34
2023-03-01T11:11:35.135Z,102386.22
2023-03-01T11:14:24.951Z,102385.00
2023-03-01T11:17:03.769Z,102225.94
2023-03-01T11:19:36.906Z,102385.44
2023-03-01T11:22:11.399Z,102326.34
2023-03-01T11:24:44.791Z,102353.41
2023-03-01T11:27:23.944Z,102371.84
2023-03-01T11:29:58.220Z,102367.25
2023-03-01T11:32:31.340Z,102320.41
2023-03-01T11:35:11.887Z,102348.75
2023-03-01T11:37:47.528Z,102370.19
2023-03-01T11:40:20.968Z,102304.63
2023-03-01T11:43:00.120Z,102354.56
2023-03-01T11:45:35.700Z,102352.69
2023-03-01T11:48:49.318Z,102355.47
2023-03-01T11:51:29.299Z,102337.56
2023-03-01T11:54:08.738Z,102328.09
2023-03-01T11:56:42.102Z,102338.84
2023-03-01T11:59:43.128Z,102324.97
2023-03-01T12:02:54.016Z,102353.97
2023-03-01T12:05:59.406Z,102335.25
2023-03-01T12:08:37.588Z,102319.41
2023-03-01T12:11:17.807Z,102313.72
2023-03-01T12:14:12.580Z,102329.13
2023-03-01T12:17:02.972Z,102322.78
2023-03-01T12:19:55.405Z,102312.78
2023-03-01T12:22:33.825Z,102297.63
2023-03-01T12:25:29.453Z,102304.09
2023-03-01T12:28:17.091Z,102313.06
2023-03-01T12:31:04.192Z,102303.41
2023-03-01T12:33:45.050Z,102277.50
2023-03-01T12:36:34.481Z,102287.09
2023-03-01T12:39:20.460Z,102282.22
2023-03-01T12:42:06.223Z,102281.75
2023-03-01T12:45:01.102Z,102263.16
2023-03-01T12:47:45.948Z,102263.25
2023-03-01T12:50:20.834Z,102255.47
2023-03-01T12:52:54.923Z,102261.13
2023-03-01T12:55:32.857Z,102241.94
2023-03-01T12:58:19.516Z,102203.97
2023-03-01T13:01:03.859Z,102215.34
2023-03-01T13:03:41.965Z,102242.44
2023-03-01T13:06:18.688Z,102223.72
2023-03-01T13:08:57.365Z,102237.38
2023-03-01T13:11:27.626Z,102197.06
2023-03-01T13:14:37.133Z,102216.81
2023-03-01T13:17:35.553Z,102226.38
2023-03-01T13:20:05.262Z,102190.53
2023-03-01T13:22:49.844Z,102211.06
2023-03-01T13:25:27.584Z,102213.19
2023-03-01T13:28:31.457Z,102216.31
2023-03-01T13:31:01.644Z,102220.00
2023-03-01T13:33:49.701Z,102205.00
2023-03-01T13:36:50.665Z,102203.63
2023-03-01T13:39:33.478Z,102191.00
2023-03-01T13:42:03.959Z,102185.03
2023-03-01T13:44:37.372Z,102149.47
2023-03-01T13:47:20.170Z,102198.31
2023-03-01T13:49:58.817Z,102175.63
2023-03-01T13:52:40.538Z,102193.44
2023-03-01T13:55:22.005Z,102158.56
2023-03-01T13:57:54.911Z,102139.00
2023-03-01T14:00:33.980Z,102130.78
2023-03-01T14:03:06.543Z,102158.53
2023-03-01T14:05:39.699Z,102189.88
2023-03-01T14:08:23.148Z,102191.81
2023-03-01T14:11:09.237Z,102103.47
2023-03-01T14:13:55.774Z,102107.66
2023-03-01T14:16:39.044Z,102179.56
2023-03-01T14:19:32.685Z,102156.09
2023-03-01T14:22:16.691Z,102160.47
2023-03-01T14:24:51.430Z,102184.16
2023-03-01T14:27:21.559Z,102158.56
2023-03-01T14:29:59.301Z,102172.88
2023-03-01T14:32:30.810Z,102102.59
2023-03-01T14:35:01.935Z,102149.97
2023-03-01T14:37:36.426Z,102157.31
2023-03-01T14:40:08.570Z,102126.91
2023-03-01T14:42:39.799Z,102148.03
2023-03-01T14:45:16.435Z,102139.53
2023-03-01T14:47:48.493Z,102132.56
2023-03-01T14:50:26.010Z,102124.34
2023-03-01T14:53:01.845Z,102139.41
2023-03-01T14:55:35.876Z,102117.50
2023-03-01T14:58:07.589Z,102130.16
2023-03-01T15:00:38.976Z,102113.94
2023-03-01T15:03:14.766Z,102124.13
2023-03-01T15:05:46.796Z,102124.69
2023-03-01T15:08:22.810Z,102121.38
2023-03-01T15:11:06.772Z,102095.28
2023-03-01T15:13:41.201Z,102064.22
2023-03-01T15:16:14.422Z,102054.84
2023-03-01T15:18:54.023Z,102057.19
2023-03-01T15:21:28.211Z,102043.41
2023-03-01T15:24:12.679Z,102093.88
2023-03-01T15:26:46.767Z,102107.69
2023-03-01T15:29:20.981Z,102111.28
2023-03-01T15:31:59.283Z,102083.53
2023-03-01T15:34:31.459Z,102084.31
2023-03-01T15:37:02.725Z,102089.47
2023-03-01T15:39:44.635Z,102090.00
2023-03-01T15:42:17.749Z,102098.44
2023-03-01T15:44:47.468Z,102088.81
2023-03-01T15:47:30.887Z,102082.84
2023-03-01T15:50:03.487Z,102062.34
2023-03-01T15:52:40.611Z,102068.66
2023-03-01T15:55:21.078Z,102026.22
2023-03-01T15:57:51.768Z,102045.47
2023-03-01T16:00:22.682Z,102083.78
2023-03-01T16:02:52.362Z,102080.69
2023-03-01T16:05:24.820Z,102072.72
2023-03-01T16:07:55.401Z,102074.78
2023-03-01T16:10:28.449Z,102064.28
2023-03-01T16:12:58.201Z,102068.66
2023-03-01T16:15:32.648Z,102068.31
2023-03-01T16:18:03.013Z,102073.03
2023-03-01T16:20:33.999Z,102071.88
2023-03-01T16:23:05.293Z,102063.59
2023-03-01T16:25:39.047Z,102045.00
2023-03-01T16:28:10.278Z,102065.16
2023-03-01T16:30:41.107Z,102052.72
2023-03-01T16:33:31.487Z,102040.50
2023-03-01T16:36:03.097Z,102013.06
2023-03-01T16:38:35.772Z,102054.31
2023-03-01T16:41:08.894Z,102041.34
2023-03-01T16:43:38.709Z,102071.56
2023-03-01T16:46:14.393Z,102069.31
2023-03-01T16:48:44.400Z,102073.13
2023-03-01T16:51:14.528Z,102056.34
2023-03-01T16:53:46.965Z,102069.28
2023-03-01T16:56:21.259Z,102067.06
2023-03-01T16:58:51.321Z,102020.03
2023-03-01T17:01:24.503Z,102064.28
2023-03-01T17:03:54.357Z,101947.47
2023-03-01T17:06:26.060Z,102060.22
2023-03-01T17:08:55.926Z,102075.88
2023-03-01T17:11:28.709Z,102030.91
2023-03-01T17:13:58.551Z,102025.91
2023-03-01T17:16:28.464Z,101997.88
2023-03-01T17:18:58.263Z,102074.63
2023-03-01T17:21:28.560Z,102069.00
2023-03-01T17:24:00.468Z,102038.94
2023-03-01T17:26:33.285Z,102055.09
2023-03-01T17:29:03.910Z,102042.53
2023-03-01T17:31:34.522Z,101942.88
2023-03-01T17:34:04.700Z,102083.81
2023-03-01T17:36:41.853Z,102034.91
2023-03-01T17:39:11.558Z,102011.63
2023-03-01T17:41:44.101Z,102091.66
2023-03-01T17:44:13.859Z,101996.91
2023-03-01T17:46:43.740Z,102020.28
2023-03-01T17:49:13.732Z,102075.19
2023-03-01T17:51:44.573Z,102067.66
2023-03-01T17:54:14.384Z,102034.75
2023-03-01T17:56:46.808Z,102030.97
2023-03-01T17:59:17.809Z,101821.28
2023-03-01T18:01:47.839Z,102049.44
2023-03-01T18:04:18.596Z,102116.31
2023-03-01T18:06:48.481Z,102105.13
2023-03-01T18:09:18.205Z,102050.75
2023-03-01T18:11:50.761Z,102113.78
2023-03-01T18:14:20.649Z,102085.84
2023-03-01T18:16:50.521Z,102060.09
2023-03-01T18:19:21.339Z,102066.09
2023-03-01T18:21:51.208Z,102086.41
2023-03-01T18:24:21.002Z,101956.97
2023-03-01T18:26:53.547Z,102042.13
2023-03-01T18:29:24.713Z,101989.31
2023-03-01T18:35:02.783Z,101974.78
2023-03-01T18:37:44.891Z,101947.19
2023-03-01T18:40:15.667Z,101889.81
2023-03-01T18:42:51.237Z,102095.28
2023-03-01T18:45:28.017Z,101927.94
2023-03-01T18:47:58.000Z,101894.06
2023-03-01T18:50:27.799Z,102093.91
2023-03-01T18:52:58.017Z,102052.88
2023-03-01T18:55:27.893Z,102005.06
2023-03-01T18:58:00.252Z,102068.44
2023-03-01T19:00:30.023Z,102089.47
2023-03-01T19:03:01.190Z,102072.22
2023-03-01T19:05:31.054Z,102044.47
2023-03-01T19:08:00.794Z,102064.84
2023-03-01T19:10:31.858Z,102088.53
2023-03-01T19:13:04.355Z,102110.03
2023-03-01T19:15:33.985Z,102067.22
2023-03-01T19:18:04.585Z,102110.88
2023-03-01T19:20:34.269Z,102104.94
2023-03-01T19:23:03.943Z,102107.91
2023-03-01T19:25:33.614Z,102107.03
2023-03-01T19:28:06.034Z,102103.56
2023-03-01T19:30:35.685Z,102092.63
2023-03-01T19:33:05.608Z,102086.03
2023-03-01T19:35:37.647Z,102118.91
2023-03-01T19:38:07.374Z,102120.41
2023-03-01T19:40:39.148Z,102078.22
2023-03-01T19:43:11.718Z,102104.66
2023-03-01T19:45:41.367Z,102076.84
2023-03-01T19:48:10.973Z,102044.34
2023-03-01T19:50:40.662Z,102089.16
2023-03-01T19:54:16.292Z,101827.06
2023-03-01T19:57:17.187Z,101949.97
2023-03-01T19:59:56.226Z,101956.09
2023-03-01T20:02:37.675Z,101946.03
2023-03-01T20:05:23.269Z,101932.09
2023-03-01T20:08:20.825Z,101922.53
2023-03-01T20:10:59.677Z,101925.97
2023-03-01T20:13:32.295Z,102140.75
2023-03-01T20:16:11.799Z,102109.31
2023-03-01T20:18:42.054Z,101884.53
2023-03-01T20:21:23.435Z,101990.09
2023-03-01T20:24:28.510Z,101812.25
